sensor_id;sensor_type;location;lat;lon;timestamp;pressure;altitude;pressure_sealevel;temperature;humidity
17781;BME280;8498;52.516;13.790;2023-05-20T00:02:08;102128.50;;;11.98;80.22
17781;BME280;8498;52.516;13.790;2023-05-20T00:07:30;102129.53;;;11.95;80.34
17781;BME280;8498;52.516;13.790;2023-05-20T00:12:53;102135.25;;;11.88;81.26
17781;BME280;8498;52.516;13.790;2023-05-20T00:18:15;102132.59;;;11.88;81.38
17781;BME280;8498;52.516;13.790;2023-05-20T00:23:38;102129.31;;;11.83;82.17
17781;BME280;8498;52.516;13.790;2023-05-20T00:29:00;102123.97;;;11.83;82.37
17781;BME280;8498;52.516;13.790;2023-05-20T00:34:22;102125.66;;;11.84;82.91
17781;BME280;8498;52.516;13.790;2023-05-20T00:39:45;102125.06;;;11.79;82.90
17781;BME280;8498;52.516;13.790;2023-05-20T00:45:07;102127.72;;;11.79;83.90
17781;BME280;8498;52.516;13.790;2023-05-20T00:50:30;102125.84;;;11.81;83.46
17781;BME280;8498;52.516;13.790;2023-05-20T00:55:54;102130.38;;;11.79;84.13
17781;BME280;8498;52.516;13.790;2023-05-20T01:01:16;102122.41;;;11.79;84.18
17781;BME280;8498;52.516;13.790;2023-05-20T01:06:38;102112.75;;;11.76;84.14
17781;BME280;8498;52.516;13.790;2023-05-20T01:12:11;102109.44;;;11.71;84.42
17781;BME280;8498;52.516;13.790;2023-05-20T01:17:38;102119.16;;;11.72;84.31
17781;BME280;8498;52.516;13.790;2023-05-20T01:23:01;102103.25;;;11.70;84.14
17781;BME280;8498;52.516;13.790;2023-05-20T01:28:24;102102.59;;;11.65;84.21
17781;BME280;8498;52.516;13.790;2023-05-20T01:33:51;102102.47;;;11.68;84.36
17781;BME280;8498;52.516;13.790;2023-05-20T01:39:17;102098.72;;;11.72;84.10
17781;BME280;8498;52.516;13.790;2023-05-20T01:44:39;102093.72;;;11.84;84.21
17781;BME280;8498;52.516;13.790;2023-05-20T01:50:03;102098.91;;;11.87;84.31
17781;BME280;8498;52.516;13.790;2023-05-20T01:55:25;102094.81;;;11.97;84.00
17781;BME280;8498;52.516;13.790;2023-05-20T02:00:48;102098.19;;;12.00;84.07
17781;BME280;8498;52.516;13.790;2023-05-20T02:06:11;102094.28;;;12.07;83.42
17781;BME280;8498;52.516;13.790;2023-05-20T02:11:34;102093.88;;;12.15;83.58
17781;BME280;8498;52.516;13.790;2023-05-20T02:16:57;102084.63;;;12.22;83.11
17781;BME280;8498;52.516;13.790;2023-05-20T02:22:21;102086.34;;;12.23;83.03
17781;BME280;8498;52.516;13.790;2023-05-20T02:27:43;102086.97;;;12.28;82.75
17781;BME280;8498;52.516;13.790;2023-05-20T02:33:06;102074.50;;;12.29;82.97
17781;BME280;8498;52.516;13.790;2023-05-20T02:38:32;102069.81;;;12.34;82.82
17781;BME280;8498;52.516;13.790;2023-05-20T02:43:55;102079.09;;;12.42;82.51
17781;BME280;8498;52.516;13.790;2023-05-20T02:49:17;102085.22;;;12.44;82.64
17781;BME280;8498;52.516;13.790;2023-05-20T02:54:40;102084.34;;;12.44;82.67
17781;BME280;8498;52.516;13.790;2023-05-20T03:00:06;102087.88;;;12.44;82.96
17781;BME280;8498;52.516;13.790;2023-05-20T03:05:29;102092.28;;;12.45;82.72
17781;BME280;8498;52.516;13.790;2023-05-20T03:10:53;102107.13;;;12.49;82.86
17781;BME280;8498;52.516;13.790;2023-05-20T03:16:16;102099.00;;;12.53;82.82
17781;BME280;8498;52.516;13.790;2023-05-20T03:21:40;102106.19;;;12.50;82.73
17781;BME280;8498;52.516;13.790;2023-05-20T03:27:02;102110.44;;;12.55;82.59
17781;BME280;8498;52.516;13.790;2023-05-20T03:32:25;102107.69;;;12.56;82.57
17781;BME280;8498;52.516;13.790;2023-05-20T03:37:47;102108.28;;;12.61;82.53
17781;BME280;8498;52.516;13.790;2023-05-20T03:43:10;102117.94;;;12.64;82.45
17781;BME280;8498;52.516;13.790;2023-05-20T03:48:33;102110.97;;;12.61;83.07
17781;BME280;8498;52.516;13.790;2023-05-20T03:53:55;102116.06;;;12.66;82.83
17781;BME280;8498;52.516;13.790;2023-05-20T03:59:18;102118.47;;;12.70;82.99
17781;BME280;8498;52.516;13.790;2023-05-20T04:04:41;102116.66;;;12.71;83.40
17781;BME280;8498;52.516;13.790;2023-05-20T04:10:08;102110.22;;;12.75;83.24
17781;BME280;8498;52.516;13.790;2023-05-20T04:15:34;102109.88;;;12.81;83.48
17781;BME280;8498;52.516;13.790;2023-05-20T04:20:57;102105.41;;;12.81;83.54
17781;BME280;8498;52.516;13.790;2023-05-20T04:26:23;102112.22;;;12.87;83.63
17781;BME280;8498;52.516;13.790;2023-05-20T04:31:45;102115.84;;;12.86;83.83
17781;BME280;8498;52.516;13.790;2023-05-20T04:37:10;102108.25;;;12.94;83.55
17781;BME280;8498;52.516;13.790;2023-05-20T04:42:34;102114.38;;;12.96;83.36
17781;BME280;8498;52.516;13.790;2023-05-20T04:47:56;102110.94;;;12.94;83.84
17781;BME280;8498;52.516;13.790;2023-05-20T04:53:19;102108.84;;;12.99;84.08
17781;BME280;8498;52.516;13.790;2023-05-20T04:58:45;102103.34;;;13.02;84.02
17781;BME280;8498;52.516;13.790;2023-05-20T05:04:07;102108.53;;;13.05;84.42
17781;BME280;8498;52.516;13.790;2023-05-20T05:09:30;102109.13;;;13.10;84.09
17781;BME280;8498;52.516;13.790;2023-05-20T05:14:56;102103.88;;;13.09;84.23
17781;BME280;8498;52.516;13.790;2023-05-20T05:20:20;102116.84;;;13.16;84.34
17781;BME280;8498;52.516;13.790;2023-05-20T05:25:43;102112.63;;;13.28;84.36
17781;BME280;8498;52.516;13.790;2023-05-20T05:31:06;102112.00;;;13.23;84.26
17781;BME280;8498;52.516;13.790;2023-05-20T05:36:32;102121.38;;;13.30;84.17
17781;BME280;8498;52.516;13.790;2023-05-20T05:41:55;102110.63;;;13.32;84.18
17781;BME280;8498;52.516;13.790;2023-05-20T05:47:18;102108.97;;;13.29;84.63
17781;BME280;8498;52.516;13.790;2023-05-20T05:52:41;102110.28;;;13.38;84.70
17781;BME280;8498;52.516;13.790;2023-05-20T05:58:04;102101.13;;;13.42;84.29
17781;BME280;8498;52.516;13.790;2023-05-20T06:03:27;102088.88;;;13.53;84.20
17781;BME280;8498;52.516;13.790;2023-05-20T06:08:52;102093.69;;;13.63;83.83
17781;BME280;8498;52.516;13.790;2023-05-20T06:14:15;102092.56;;;13.67;83.73
17781;BME280;8498;52.516;13.790;2023-05-20T06:19:37;102085.75;;;13.61;83.81
17781;BME280;8498;52.516;13.790;2023-05-20T06:25:00;102079.69;;;13.73;84.04
17781;BME280;8498;52.516;13.790;2023-05-20T06:30:25;102084.69;;;13.79;83.62
17781;BME280;8498;52.516;13.790;2023-05-20T06:35:47;102077.56;;;13.94;83.48
17781;BME280;8498;52.516;13.790;2023-05-20T06:41:10;102080.19;;;14.10;82.56
17781;BME280;8498;52.516;13.790;2023-05-20T06:46:33;102082.13;;;14.22;82.17
17781;BME280;8498;52.516;13.790;2023-05-20T06:52:01;102073.13;;;14.23;82.50
17781;BME280;8498;52.516;13.790;2023-05-20T06:57:24;102078.56;;;14.36;81.91
17781;BME280;8498;52.516;13.790;2023-05-20T07:02:47;102075.38;;;14.59;81.29
17781;BME280;8498;52.516;13.790;2023-05-20T07:08:10;102070.88;;;14.74;80.72
17781;BME280;8498;52.516;13.790;2023-05-20T07:13:33;102069.34;;;14.84;80.25
17781;BME280;8498;52.516;13.790;2023-05-20T07:18:57;102063.13;;;14.83;79.86
17781;BME280;8498;52.516;13.790;2023-05-20T07:24:19;102070.16;;;14.98;80.03
17781;BME280;8498;52.516;13.790;2023-05-20T07:29:42;102062.22;;;14.97;79.97
17781;BME280;8498;52.516;13.790;2023-05-20T07:35:05;102063.50;;;15.18;79.59
17781;BME280;8498;52.516;13.790;2023-05-20T07:40:27;102057.91;;;15.35;78.69
17781;BME280;8498;52.516;13.790;2023-05-20T07:45:50;102050.56;;;15.52;78.70
17781;BME280;8498;52.516;13.790;2023-05-20T07:51:13;102059.44;;;15.66;78.39
17781;BME280;8498;52.516;13.790;2023-05-20T07:56:35;102054.75;;;15.95;77.63
17781;BME280;8498;52.516;13.790;2023-05-20T08:01:59;102049.72;;;16.03;76.19
17781;BME280;8498;52.516;13.790;2023-05-20T08:07:23;102046.50;;;16.36;75.60
17781;BME280;8498;52.516;13.790;2023-05-20T08:12:48;102034.16;;;16.59;75.49
17781;BME280;8498;52.516;13.790;2023-05-20T08:18:11;102030.22;;;16.39;73.75
17781;BME280;8498;52.516;13.790;2023-05-20T08:23:35;102026.22;;;16.45;73.78
17781;BME280;8498;52.516;13.790;2023-05-20T08:29:01;102026.53;;;16.40;74.05
17781;BME280;8498;52.516;13.790;2023-05-20T08:34:24;102024.38;;;16.58;73.88
17781;BME280;8498;52.516;13.790;2023-05-20T08:39:47;102027.72;;;16.62;73.13
17781;BME280;8498;52.516;13.790;2023-05-20T08:45:12;102023.94;;;16.77;72.22
17781;BME280;8498;52.516;13.790;2023-05-20T08:50:38;102012.81;;;16.94;71.77
17781;BME280;8498;52.516;13.790;2023-05-20T08:56:00;102012.88;;;17.05;71.64
17781;BME280;8498;52.516;13.790;2023-05-20T09:01:24;102010.34;;;17.15;71.45
17781;BME280;8498;52.516;13.790;2023-05-20T09:06:49;102005.22;;;17.12;71.06
17781;BME280;8498;52.516;13.790;2023-05-20T09:12:12;102001.91;;;17.08;70.80
17781;BME280;8498;52.516;13.790;2023-05-20T09:17:35;102004.44;;;16.99;71.45
17781;BME280;8498;52.516;13.790;2023-05-20T09:22:59;102006.28;;;16.85;73.05
17781;BME280;8498;52.516;13.790;2023-05-20T09:28:23;102015.56;;;17.05;72.71
17781;BME280;8498;52.516;13.790;2023-05-20T09:33:50;102004.75;;;17.18;71.61
17781;BME280;8498;52.516;13.790;2023-05-20T09:39:15;101997.03;;;17.37;70.76
17781;BME280;8498;52.516;13.790;2023-05-20T09:44:38;102001.06;;;17.32;70.39
17781;BME280;8498;52.516;13.790;2023-05-20T09:50:03;101995.34;;;17.47;70.08
17781;BME280;8498;52.516;13.790;2023-05-20T09:55:29;102000.94;;;17.44;70.44
17781;BME280;8498;52.516;13.790;2023-05-20T10:00:52;101995.22;;;17.73;69.38
17781;BME280;8498;52.516;13.790;2023-05-20T10:18:18;101997.47;;;17.90;67.58
17781;BME280;8498;52.516;13.790;2023-05-20T10:23:46;101984.78;;;18.03;67.32
17781;BME280;8498;52.516;13.790;2023-05-20T10:29:18;101980.72;;;18.42;66.84
17781;BME280;8498;52.516;13.790;2023-05-20T10:34:45;101970.72;;;18.66;65.76
17781;BME280;8498;52.516;13.790;2023-05-20T10:40:13;101982.22;;;18.35;65.79
17781;BME280;8498;52.516;13.790;2023-05-20T10:45:47;101988.19;;;18.27;68.30
17781;BME280;8498;52.516;13.790;2023-05-20T10:51:13;101982.31;;;18.45;66.54
17781;BME280;8498;52.516;13.790;2023-05-20T10:56:36;101970.91;;;18.86;66.12
17781;BME280;8498;52.516;13.790;2023-05-20T11:02:00;101966.38;;;18.86;65.72
17781;BME280;8498;52.516;13.790;2023-05-20T11:07:27;101950.19;;;18.97;65.08
17781;BME280;8498;52.516;13.790;2023-05-20T11:12:50;101959.69;;;18.47;65.18
17781;BME280;8498;52.516;13.790;2023-05-20T11:18:13;101951.03;;;18.32;67.00
17781;BME280;8498;52.516;13.790;2023-05-20T11:23:39;101946.75;;;19.27;65.03
17781;BME280;8498;52.516;13.790;2023-05-20T11:29:02;101945.44;;;20.14;62.23
17781;BME280;8498;52.516;13.790;2023-05-20T11:34:33;101941.19;;;19.40;63.77
17781;BME280;8498;52.516;13.790;2023-05-20T11:40:05;101936.69;;;20.22;60.24
17781;BME280;8498;52.516;13.790;2023-05-20T11:45:41;101930.81;;;20.47;59.62
17781;BME280;8498;52.516;13.790;2023-05-20T11:51:04;101922.72;;;20.17;60.53
17781;BME280;8498;52.516;13.790;2023-05-20T11:56:34;101929.13;;;19.86;62.02
17781;BME280;8498;52.516;13.790;2023-05-20T12:01:58;101923.56;;;19.77;62.67
17781;BME280;8498;52.516;13.790;2023-05-20T12:07:20;101912.53;;;20.21;61.37
17781;BME280;8498;52.516;13.790;2023-05-20T12:12:44;101906.38;;;20.09;59.85
17781;BME280;8498;52.516;13.790;2023-05-20T12:18:07;101906.25;;;20.10;60.20
17781;BME280;8498;52.516;13.790;2023-05-20T12:23:29;101907.00;;;20.62;58.92
17781;BME280;8498;52.516;13.790;2023-05-20T12:28:55;101898.19;;;20.79;57.13
17781;BME280;8498;52.516;13.790;2023-05-20T12:34:18;101884.38;;;21.11;57.95
17781;BME280;8498;52.516;13.790;2023-05-20T12:39:40;101881.13;;;20.69;57.99
17781;BME280;8498;52.516;13.790;2023-05-20T12:45:03;101869.75;;;21.04;56.34
17781;BME280;8498;52.516;13.790;2023-05-20T12:50:26;101853.25;;;21.07;55.77
17781;BME280;8498;52.516;13.790;2023-05-20T12:55:49;101861.06;;;21.20;56.96
17781;BME280;8498;52.516;13.790;2023-05-20T13:01:11;101853.25;;;21.07;56.22
17781;BME280;8498;52.516;13.790;2023-05-20T13:06:33;101842.03;;;21.68;54.35
17781;BME280;8498;52.516;13.790;2023-05-20T13:11:56;101826.63;;;22.06;54.44
17781;BME280;8498;52.516;13.790;2023-05-20T13:17:18;101832.16;;;22.94;51.77
17781;BME280;8498;52.516;13.790;2023-05-20T13:22:41;101802.41;;;21.77;52.94
17781;BME280;8498;52.516;13.790;2023-05-20T13:28:04;101796.78;;;21.60;54.60
17781;BME280;8498;52.516;13.790;2023-05-20T13:33:27;101794.78;;;22.00;52.80
17781;BME280;8498;52.516;13.790;2023-05-20T13:38:49;101787.16;;;22.48;52.60
17781;BME280;8498;52.516;13.790;2023-05-20T13:44:14;101786.38;;;22.38;52.16
17781;BME280;8498;52.516;13.790;2023-05-20T13:49:37;101780.66;;;22.77;51.90
17781;BME280;8498;52.516;13.790;2023-05-20T13:54:59;101780.88;;;23.01;51.03
17781;BME280;8498;52.516;13.790;2023-05-20T14:00:22;101779.00;;;23.27;50.50
17781;BME280;8498;52.516;13.790;2023-05-20T14:05:44;101774.75;;;23.25;49.73
17781;BME280;8498;52.516;13.790;2023-05-20T14:11:07;101779.41;;;23.40;49.43
17781;BME280;8498;52.516;13.790;2023-05-20T14:16:30;101756.69;;;23.41;48.83
17781;BME280;8498;52.516;13.790;2023-05-20T14:21:53;101754.06;;;22.98;50.24
17781;BME280;8498;52.516;13.790;2023-05-20T14:27:16;101735.63;;;23.61;50.56
17781;BME280;8498;52.516;13.790;2023-05-20T14:32:38;101747.53;;;24.51;48.26
17781;BME280;8498;52.516;13.790;2023-05-20T14:38:01;101743.06;;;24.09;47.93
17781;BME280;8498;52.516;13.790;2023-05-20T14:43:24;101728.44;;;23.94;47.78
17781;BME280;8498;52.516;13.790;2023-05-20T14:48:47;101735.50;;;23.79;48.23
17781;BME280;8498;52.516;13.790;2023-05-20T14:54:09;101724.34;;;23.98;47.88
17781;BME280;8498;52.516;13.790;2023-05-20T14:59:32;101732.47;;;23.82;47.29
17781;BME280;8498;52.516;13.790;2023-05-20T15:04:55;101717.91;;;23.91;47.79
17781;BME280;8498;52.516;13.790;2023-05-20T15:10:17;101720.69;;;24.15;48.14
17781;BME280;8498;52.516;13.790;2023-05-20T15:15:39;101698.50;;;24.28;47.19
17781;BME280;8498;52.516;13.790;2023-05-20T15:21:02;101707.81;;;24.58;47.60
17781;BME280;8498;52.516;13.790;2023-05-20T15:26:24;101693.38;;;24.41;46.79
17781;BME280;8498;52.516;13.790;2023-05-20T15:31:50;101693.56;;;24.40;47.22
17781;BME280;8498;52.516;13.790;2023-05-20T15:37:12;101691.81;;;24.06;47.29
17781;BME280;8498;52.516;13.790;2023-05-20T15:42:35;101681.19;;;24.37;46.88
17781;BME280;8498;52.516;13.790;2023-05-20T15:47:57;101678.97;;;24.25;47.11
17781;BME280;8498;52.516;13.790;2023-05-20T15:53:20;101685.94;;;24.27;47.62
17781;BME280;8498;52.516;13.790;2023-05-20T15:58:42;101666.53;;;23.98;47.74
17781;BME280;8498;52.516;13.790;2023-05-20T16:04:05;101660.47;;;24.28;47.54
17781;BME280;8498;52.516;13.790;2023-05-20T16:09:28;101659.94;;;24.41;46.05
17781;BME280;8498;52.516;13.790;2023-05-20T16:14:51;101645.16;;;24.51;46.96
17781;BME280;8498;52.516;13.790;2023-05-20T16:20:13;101648.75;;;24.44;46.23
17781;BME280;8498;52.516;13.790;2023-05-20T16:25:36;101639.53;;;24.21;47.02
17781;BME280;8498;52.516;13.790;2023-05-20T16:30:58;101637.84;;;24.11;46.93
17781;BME280;8498;52.516;13.790;2023-05-20T16:36:22;101623.31;;;24.29;46.85
17781;BME280;8498;52.516;13.790;2023-05-20T16:41:45;101632.34;;;25.40;49.00
17781;BME280;8498;52.516;13.790;2023-05-20T16:47:09;101620.53;;;26.61;42.13
17781;BME280;8498;52.516;13.790;2023-05-20T16:52:32;101629.28;;;24.96;45.97
17781;BME280;8498;52.516;13.790;2023-05-20T16:57:55;101608.69;;;25.40;46.63
17781;BME280;8498;52.516;13.790;2023-05-20T17:03:18;101602.19;;;25.49;44.96
17781;BME280;8498;52.516;13.790;2023-05-20T17:08:41;101605.09;;;24.21;46.82
17781;BME280;8498;52.516;13.790;2023-05-20T17:14:04;101603.09;;;23.24;49.36
17781;BME280;8498;52.516;13.790;2023-05-20T17:19:26;101602.47;;;22.70;50.83
17781;BME280;8498;52.516;13.790;2023-05-20T17:24:49;101599.41;;;22.40;52.26
17781;BME280;8498;52.516;13.790;2023-05-20T17:30:12;101599.28;;;22.23;52.90
17781;BME280;8498;52.516;13.790;2023-05-20T17:35:34;101594.91;;;22.05;53.97
17781;BME280;8498;52.516;13.790;2023-05-20T17:40:57;101598.38;;;21.97;54.34
17781;BME280;8498;52.516;13.790;2023-05-20T17:46:20;101594.28;;;21.75;55.24
17781;BME280;8498;52.516;13.790;2023-05-20T17:51:43;101585.09;;;21.68;55.63
17781;BME280;8498;52.516;13.790;2023-05-20T17:57:07;101588.88;;;21.57;56.70
17781;BME280;8498;52.516;13.790;2023-05-20T18:02:30;101590.31;;;21.34;58.83
17781;BME280;8498;52.516;13.790;2023-05-20T18:07:53;101581.66;;;21.31;58.80
17781;BME280;8498;52.516;13.790;2023-05-20T18:13:15;101586.84;;;21.24;59.24
17781;BME280;8498;52.516;13.790;2023-05-20T18:18:38;101589.56;;;21.14;60.10
17781;BME280;8498;52.516;13.790;2023-05-20T18:24:00;101591.91;;;21.00;60.98
17781;BME280;8498;52.516;13.790;2023-05-20T18:29:22;101598.25;;;20.81;61.85
17781;BME280;8498;52.516;13.790;2023-05-20T18:34:46;101593.72;;;20.72;62.88
17781;BME280;8498;52.516;13.790;2023-05-20T18:40:09;101591.06;;;20.62;63.51
17781;BME280;8498;52.516;13.790;2023-05-20T18:45:32;101588.97;;;20.46;64.27
17781;BME280;8498;52.516;13.790;2023-05-20T18:50:54;101605.19;;;20.27;65.41
17781;BME280;8498;52.516;13.790;2023-05-20T18:56:17;101609.03;;;20.15;66.04
17781;BME280;8498;52.516;13.790;2023-05-20T19:01:39;101606.50;;;20.04;66.53
17781;BME280;8498;52.516;13.790;2023-05-20T19:07:02;101624.25;;;19.97;67.04
17781;BME280;8498;52.516;13.790;2023-05-20T19:12:25;101627.78;;;19.88;67.62
17781;BME280;8498;52.516;13.790;2023-05-20T19:17:47;101628.19;;;19.73;68.18
17781;BME280;8498;52.516;13.790;2023-05-20T19:23:10;101630.59;;;19.57;68.88
17781;BME280;8498;52.516;13.790;2023-05-20T19:28:33;101632.66;;;19.44;69.62
17781;BME280;8498;52.516;13.790;2023-05-20T19:33:55;101623.00;;;19.32;69.82
17781;BME280;8498;52.516;13.790;2023-05-20T19:39:18;101630.66;;;19.27;70.09
17781;BME280;8498;52.516;13.790;2023-05-20T19:44:41;101629.50;;;19.20;70.00
17781;BME280;8498;52.516;13.790;2023-05-20T19:50:04;101634.88;;;19.10;70.51
17781;BME280;8498;52.516;13.790;2023-05-20T19:55:28;101640.06;;;19.02;70.76
17781;BME280;8498;52.516;13.790;2023-05-20T20:00:50;101639.75;;;18.95;71.25
17781;BME280;8498;52.516;13.790;2023-05-20T20:06:13;101644.41;;;18.93;70.95
17781;BME280;8498;52.516;13.790;2023-05-20T20:11:35;101635.44;;;18.83;71.41
17781;BME280;8498;52.516;13.790;2023-05-20T20:16:58;101640.47;;;18.67;72.10
17781;BME280;8498;52.516;13.790;2023-05-20T20:22:20;101634.63;;;18.62;72.38
17781;BME280;8498;52.516;13.790;2023-05-20T20:27:43;101634.41;;;18.54;72.82
17781;BME280;8498;52.516;13.790;2023-05-20T20:33:05;101637.03;;;18.44;72.99
17781;BME280;8498;52.516;13.790;2023-05-20T20:38:30;101642.63;;;18.31;73.78
17781;BME280;8498;52.516;13.790;2023-05-20T20:43:53;101639.72;;;18.23;73.95
17781;BME280;8498;52.516;13.790;2023-05-20T20:49:19;101641.25;;;18.16;74.60
17781;BME280;8498;52.516;13.790;2023-05-20T20:54:42;101633.34;;;18.04;75.57
17781;BME280;8498;52.516;13.790;2023-05-20T21:00:05;101626.41;;;18.01;75.97
17781;BME280;8498;52.516;13.790;2023-05-20T21:05:38;101629.34;;;17.98;75.78
17781;BME280;8498;52.516;13.790;2023-05-20T21:11:00;101631.81;;;17.90;76.20
17781;BME280;8498;52.516;13.790;2023-05-20T21:16:23;101624.91;;;17.76;76.97
17781;BME280;8498;52.516;13.790;2023-05-20T21:21:45;101624.56;;;17.70;77.56
17781;BME280;8498;52.516;13.790;2023-05-20T21:27:08;101618.34;;;17.69;77.71
17781;BME280;8498;52.516;13.790;2023-05-20T21:32:30;101603.59;;;17.64;78.12
17781;BME280;8498;52.516;13.790;2023-05-20T21:37:53;101598.78;;;17.67;78.05
17781;BME280;8498;52.516;13.790;2023-05-20T21:43:15;101606.00;;;17.55;78.45
17781;BME280;8498;52.516;13.790;2023-05-20T21:48:37;101596.75;;;17.48;78.87
17781;BME280;8498;52.516;13.790;2023-05-20T21:54:01;101597.50;;;17.39;79.63
17781;BME280;8498;52.516;13.790;2023-05-20T21:59:23;101599.72;;;17.34;80.21
17781;BME280;8498;52.516;13.790;2023-05-20T22:04:45;101587.03;;;17.25;81.13
17781;BME280;8498;52.516;13.790;2023-05-20T22:10:10;101583.50;;;17.24;80.67
17781;BME280;8498;52.516;13.790;2023-05-20T22:15:34;101575.19;;;17.28;81.37
17781;BME280;8498;52.516;13.790;2023-05-20T22:20:58;101568.50;;;17.33;81.36
17781;BME280;8498;52.516;13.790;2023-05-20T22:26:21;101562.38;;;17.31;81.91
17781;BME280;8498;52.516;13.790;2023-05-20T22:31:43;101556.50;;;17.37;82.09
17781;BME280;8498;52.516;13.790;2023-05-20T22:37:06;101558.06;;;17.40;81.86
17781;BME280;8498;52.516;13.790;2023-05-20T22:42:28;101556.25;;;17.40;81.98
17781;BME280;8498;52.516;13.790;2023-05-20T22:47:51;101548.19;;;17.40;81.54
17781;BME280;8498;52.516;13.790;2023-05-20T22:53:14;101544.31;;;17.33;81.77
17781;BME280;8498;52.516;13.790;2023-05-20T22:58:38;101542.13;;;17.27;81.91
17781;BME280;8498;52.516;13.790;2023-05-20T23:04:01;101543.84;;;17.17;82.81
17781;BME280;8498;52.516;13.790;2023-05-20T23:09:23;101547.50;;;17.16;83.26
17781;BME280;8498;52.516;13.790;2023-05-20T23:14:46;101542.88;;;17.18;83.05
17781;BME280;8498;52.516;13.790;2023-05-20T23:20:09;101533.84;;;17.19;83.07
17781;BME280;8498;52.516;13.790;2023-05-20T23:25:32;101529.00;;;17.13;83.70
17781;BME280;8498;52.516;13.790;2023-05-20T23:30:55;101526.44;;;17.11;83.79
17781;BME280;8498;52.516;13.790;2023-05-20T23:36:18;101527.19;;;17.02;84.21
17781;BME280;8498;52.516;13.790;2023-05-20T23:41:41;101527.34;;;16.90;84.96
17781;BME280;8498;52.516;13.790;2023-05-20T23:47:04;101515.38;;;16.82;85.39
17781;BME280;8498;52.516;13.790;2023-05-20T23:52:28;101517.34;;;16.80;85.38
17781;BME280;8498;52.516;13.790;2023-05-20T23:57:50;101499.78;;;16.76;85.10
